createdAt,value
2023-02-20T00:00:01.586Z,20.14
2023-02-20T00:01:05.073Z,20.36
2023-02-20T00:02:06.894Z,20.03
2023-02-20T00:03:08.894Z,20.36
2023-02-20T00:04:10.692Z,20.23
2023-02-20T00:05:13.739Z,20.52
2023-02-20T00:06:15.584Z,20.21
2023-02-20T00:07:17.665Z,20.53
2023-02-20T00:08:19.677Z,20.11
2023-02-20T00:09:21.517Z,20.27
2023-02-20T00:10:24.330Z,20.23
2023-02-20T00:11:26.108Z,20.18
2023-02-20T00:12:28.025Z,20.35
2023-02-20T00:13:29.811Z,20.44
2023-02-20T00:14:32.375Z,20.38
2023-02-20T00:15:34.215Z,20.12
2023-02-20T00:16:36.094Z,20.21
2023-02-20T00:17:37.969Z,20.49
2023-02-20T00:18:39.779Z,20.30
2023-02-20T00:19:41.556Z,20.56
2023-02-20T00:20:43.386Z,20.32
2023-02-20T00:21:47.586Z,20.07
2023-02-20T00:22:49.895Z,20.26
2023-02-20T00:23:51.711Z,20.25
2023-02-20T00:24:54.109Z,20.36
2023-02-20T00:25:55.891Z,20.24
2023-02-20T00:26:57.656Z,20.24
2023-02-20T00:27:59.634Z,20.41
2023-02-20T00:29:01.508Z,20.34
2023-02-20T00:30:04.842Z,20.41
2023-02-20T00:31:07.933Z,20.31
2023-02-20T00:32:12.087Z,20.33
2023-02-20T00:33:14.163Z,20.22
2023-02-20T00:34:15.943Z,20.56
2023-02-20T00:35:20.827Z,20.58
2023-02-20T00:36:23.302Z,20.63
2023-02-20T00:37:25.101Z,20.35
2023-02-20T00:38:26.907Z,20.11
2023-02-20T00:39:29.316Z,20.33
2023-02-20T00:40:31.151Z,20.22
2023-02-20T00:41:32.941Z,20.53
2023-02-20T00:42:34.921Z,20.34
2023-02-20T00:43:37.406Z,20.33
2023-02-20T00:44:39.221Z,20.21
2023-02-20T00:45:41.652Z,20.30
2023-02-20T00:46:43.542Z,20.22
2023-02-20T00:47:47.770Z,20.60
2023-02-20T00:48:51.026Z,20.55
2023-02-20T00:50:13.863Z,20.18
2023-02-20T00:51:15.704Z,20.10
2023-02-20T00:52:17.513Z,20.30
2023-02-20T00:53:19.317Z,20.49
2023-02-20T00:54:21.133Z,20.41
2023-02-20T00:55:23.085Z,20.66
2023-02-20T00:56:24.864Z,20.57
2023-02-20T00:57:26.670Z,20.21
2023-02-20T00:58:30.003Z,20.30
2023-02-20T00:59:31.825Z,20.20
2023-02-20T01:00:33.756Z,20.46
2023-02-20T01:01:36.200Z,20.18
2023-02-20T01:02:38.036Z,20.26
2023-02-20T01:03:39.841Z,20.30
2023-02-20T01:04:41.868Z,20.39
2023-02-20T01:05:44.965Z,20.17
2023-02-20T01:06:46.840Z,20.78
2023-02-20T01:07:48.849Z,20.56
2023-02-20T01:08:51.698Z,20.52
2023-02-20T01:09:55.774Z,20.74
2023-02-20T01:10:57.590Z,20.57
2023-02-20T01:11:59.372Z,20.32
2023-02-20T01:13:01.214Z,20.53
2023-02-20T01:14:03.186Z,20.27
2023-02-20T01:15:08.201Z,20.19
2023-02-20T01:16:10.378Z,20.46
2023-02-20T01:17:13.029Z,20.47
2023-02-20T01:18:14.884Z,20.26
2023-02-20T01:19:17.416Z,20.58
2023-02-20T01:20:19.348Z,20.03
2023-02-20T01:21:22.110Z,20.31
2023-02-20T01:22:24.184Z,20.48
2023-02-20T01:23:26.027Z,20.68
2023-02-20T01:24:28.134Z,20.50
2023-02-20T01:25:30.643Z,20.59
2023-02-20T01:26:32.556Z,20.52
2023-02-20T01:27:34.544Z,20.45
2023-02-20T01:28:36.357Z,20.30
2023-02-20T01:29:39.033Z,20.29
2023-02-20T01:30:40.895Z,20.60
2023-02-20T01:31:49.142Z,20.46
2023-02-20T01:32:51.127Z,20.60
2023-02-20T01:33:53.070Z,20.37
2023-02-20T01:34:54.908Z,20.40
2023-02-20T01:35:56.768Z,20.27
2023-02-20T01:36:58.702Z,20.52
2023-02-20T01:38:05.172Z,20.45
2023-02-20T01:39:07.130Z,20.57
2023-02-20T01:40:16.837Z,20.36
2023-02-20T01:41:20.160Z,20.54
2023-02-20T01:42:25.344Z,20.68
2023-02-20T01:43:30.221Z,20.31
2023-02-20T01:44:36.034Z,20.25
2023-02-20T01:45:39.546Z,20.34
2023-02-20T01:46:46.671Z,20.88
2023-02-20T01:47:55.499Z,20.59
2023-02-20T01:49:04.289Z,20.27
2023-02-20T01:50:07.563Z,20.26
2023-02-20T01:51:11.329Z,20.33
2023-02-20T01:52:21.926Z,20.22
2023-02-20T01:53:27.483Z,20.30
2023-02-20T01:54:30.718Z,20.15
2023-02-20T01:56:01.263Z,20.35
2023-02-20T01:57:06.500Z,20.08
2023-02-20T01:58:14.663Z,20.36
2023-02-20T01:59:18.082Z,20.11
2023-02-20T02:00:24.309Z,20.47
2023-02-20T02:01:26.216Z,20.38
2023-02-20T02:02:33.022Z,20.60
2023-02-20T02:03:39.991Z,20.51
2023-02-20T02:04:45.076Z,20.37
2023-02-20T02:05:49.725Z,20.18
2023-02-20T02:06:53.749Z,20.19
2023-02-20T02:07:56.610Z,20.17
2023-02-20T02:09:02.892Z,20.69
2023-02-20T02:10:10.290Z,20.56
2023-02-20T02:11:20.960Z,20.62
2023-02-20T02:12:23.316Z,20.23
2023-02-20T02:13:25.294Z,20.50
2023-02-20T02:14:29.756Z,20.65
2023-02-20T02:15:31.704Z,20.49
2023-02-20T02:16:42.785Z,20.64
2023-02-20T02:17:53.662Z,20.48
2023-02-20T02:19:04.970Z,20.37
2023-02-20T02:20:25.491Z,20.34
2023-02-20T02:21:36.282Z,20.35
2023-02-20T02:23:05.974Z,20.45
2023-02-20T02:24:32.182Z,20.26
2023-02-20T02:25:55.357Z,20.40
2023-02-20T02:27:09.869Z,20.41
2023-02-20T02:28:30.464Z,20.73
2023-02-20T02:30:11.043Z,20.53
2023-02-20T02:31:33.163Z,20.33
2023-02-20T02:32:57.614Z,20.27
2023-02-20T02:34:02.211Z,20.41
2023-02-20T02:35:27.190Z,20.66
2023-02-20T02:36:43.541Z,20.62
2023-02-20T02:37:56.354Z,20.45
2023-02-20T02:39:22.940Z,20.41
2023-02-20T02:40:43.931Z,20.33
2023-02-20T02:42:24.379Z,20.69
2023-02-20T02:43:41.280Z,20.30
2023-02-20T02:44:47.848Z,20.63
2023-02-20T02:46:02.842Z,20.47
2023-02-20T02:47:13.400Z,20.36
2023-02-20T02:48:31.733Z,20.39
2023-02-20T02:49:56.558Z,20.58
2023-02-20T02:51:10.167Z,20.69
2023-02-20T02:52:13.189Z,20.41
2023-02-20T02:53:15.848Z,20.21
2023-02-20T02:54:22.281Z,20.30
2023-02-20T02:55:30.095Z,20.81
2023-02-20T02:56:41.026Z,20.34
2023-02-20T02:57:42.892Z,20.43
2023-02-20T02:58:44.820Z,20.65
2023-02-20T02:59:49.621Z,20.42
2023-02-20T03:00:58.797Z,20.47
2023-02-20T03:02:05.996Z,20.57
2023-02-20T03:03:10.716Z,20.38
2023-02-20T03:04:14.067Z,20.42
2023-02-20T03:05:20.385Z,20.39
2023-02-20T03:06:30.648Z,20.57
2023-02-20T03:07:36.192Z,20.55
2023-02-20T03:09:09.992Z,20.37
2023-02-20T03:10:20.506Z,20.57
2023-02-20T03:11:25.529Z,20.48
2023-02-20T03:12:29.026Z,20.16
2023-02-20T03:14:02.745Z,20.50
2023-02-20T03:15:31.193Z,20.57
2023-02-20T03:16:45.971Z,20.35
2023-02-20T03:17:56.913Z,20.43
2023-02-20T03:19:02.513Z,20.77
2023-02-20T03:20:17.212Z,20.31
2023-02-20T03:21:22.333Z,20.65
2023-02-20T03:22:39.667Z,20.40
2023-02-20T03:23:53.972Z,20.48
2023-02-20T03:25:05.889Z,20.44
2023-02-20T03:26:22.499Z,20.54
2023-02-20T03:27:31.594Z,20.68
2023-02-20T03:28:47.071Z,20.34
2023-02-20T03:29:52.774Z,20.49
2023-02-20T03:31:21.252Z,20.65
2023-02-20T03:32:46.517Z,20.63
2023-02-20T03:34:17.355Z,20.35
2023-02-20T03:35:42.336Z,20.29
2023-02-20T03:37:32.741Z,20.29
2023-02-20T03:38:57.408Z,20.32
2023-02-20T03:40:22.412Z,20.36
2023-02-20T03:41:47.850Z,20.60
2023-02-20T03:43:14.754Z,20.58
2023-02-20T03:44:18.908Z,20.68
2023-02-20T03:45:24.401Z,20.77
2023-02-20T03:46:31.420Z,20.87
2023-02-20T03:47:36.845Z,20.67
2023-02-20T03:48:42.510Z,20.84
2023-02-20T03:49:46.610Z,20.79
2023-02-20T03:51:09.865Z,20.56
2023-02-20T03:52:21.318Z,20.72
2023-02-20T03:53:24.244Z,20.55
2023-02-20T03:54:28.224Z,20.65
2023-02-20T03:55:30.166Z,20.71
2023-02-20T03:56:43.308Z,20.68
2023-02-20T03:57:52.337Z,20.74
2023-02-20T03:59:06.628Z,20.68
2023-02-20T04:00:17.713Z,20.67
2023-02-20T04:01:27.916Z,20.46
2023-02-20T04:02:43.107Z,20.54
2023-02-20T04:03:48.908Z,20.62
2023-02-20T04:04:55.754Z,20.47
2023-02-20T04:06:00.707Z,20.51
2023-02-20T04:07:15.611Z,20.99
2023-02-20T04:08:24.045Z,20.74
2023-02-20T04:09:32.536Z,20.62
2023-02-20T04:10:42.286Z,21.04
2023-02-20T04:11:52.481Z,20.76
2023-02-20T04:12:56.747Z,21.02
2023-02-20T04:14:00.177Z,20.73
2023-02-20T04:15:03.144Z,20.91
2023-02-20T04:16:08.411Z,20.92
2023-02-20T04:17:16.381Z,20.72
2023-02-20T04:18:21.641Z,20.65
2023-02-20T04:19:24.690Z,20.80
2023-02-20T04:20:26.756Z,20.75
2023-02-20T04:21:44.228Z,20.92
2023-02-20T04:22:50.582Z,20.95
2023-02-20T04:24:04.520Z,21.25
2023-02-20T04:25:22.044Z,21.05
2023-02-20T04:26:24.580Z,21.17
2023-02-20T04:27:26.903Z,21.11
2023-02-20T04:28:32.022Z,20.93
2023-02-20T04:29:37.421Z,20.68
2023-02-20T04:30:39.469Z,20.94
2023-02-20T04:31:41.550Z,20.79
2023-02-20T04:32:45.078Z,20.94
2023-02-20T04:33:47.628Z,20.86
2023-02-20T04:34:54.547Z,20.79
2023-02-20T04:35:58.480Z,20.84
2023-02-20T04:37:14.332Z,21.25
2023-02-20T04:38:17.282Z,20.75
2023-02-20T04:39:19.206Z,21.11
2023-02-20T04:40:23.156Z,21.10
2023-02-20T04:41:25.310Z,20.87
2023-02-20T04:42:28.121Z,21.01
2023-02-20T04:43:31.746Z,20.59
2023-02-20T04:44:35.160Z,20.73
2023-02-20T04:45:41.871Z,20.85
2023-02-20T04:46:44.368Z,20.90
2023-02-20T04:47:47.027Z,20.92
2023-02-20T04:48:48.842Z,21.10
2023-02-20T04:49:50.635Z,20.85
2023-02-20T04:50:56.974Z,20.86
2023-02-20T04:51:59.696Z,21.05
2023-02-20T04:53:01.806Z,20.97
2023-02-20T04:54:03.916Z,20.93
2023-02-20T04:55:06.741Z,20.92
2023-02-20T04:56:08.534Z,21.25
2023-02-20T04:57:13.479Z,20.97
2023-02-20T04:58:16.050Z,20.94
2023-02-20T04:59:27.400Z,21.13
2023-02-20T05:00:29.285Z,21.01
2023-02-20T05:01:31.346Z,20.90
2023-02-20T05:02:33.177Z,21.12
2023-02-20T05:03:35.615Z,21.12
2023-02-20T05:04:37.469Z,21.34
2023-02-20T05:05:39.301Z,21.28
2023-02-20T05:06:52.756Z,21.05
2023-02-20T05:08:07.118Z,20.92
2023-02-20T05:09:10.943Z,20.85
2023-02-20T05:10:18.910Z,21.04
2023-02-20T05:11:20.680Z,21.05
2023-02-20T05:12:22.536Z,20.74
2023-02-20T05:13:24.493Z,21.15
2023-02-20T05:14:26.292Z,20.84
2023-02-20T05:15:29.575Z,20.85
2023-02-20T05:16:31.508Z,21.07
2023-02-20T05:17:33.292Z,21.27
2023-02-20T05:18:35.539Z,21.10
2023-02-20T05:19:37.527Z,21.09
2023-02-20T05:20:57.896Z,20.98
2023-02-20T05:22:18.454Z,20.79
2023-02-20T05:23:20.388Z,21.23
2023-02-20T05:24:22.932Z,21.01
2023-02-20T05:25:24.694Z,21.05
2023-02-20T05:26:26.694Z,21.00
2023-02-20T05:27:28.726Z,21.19
2023-02-20T05:28:30.552Z,21.29
2023-02-20T05:29:32.384Z,20.98
2023-02-20T05:30:34.204Z,20.80
2023-02-20T05:31:36.425Z,20.97
2023-02-20T05:32:38.465Z,21.00
2023-02-20T05:33:40.250Z,21.05
2023-02-20T05:34:43.065Z,21.08
2023-02-20T05:35:44.798Z,20.77
2023-02-20T05:36:46.581Z,21.06
2023-02-20T05:37:48.583Z,20.89
2023-02-20T05:38:50.408Z,21.15
2023-02-20T05:39:52.872Z,21.23
2023-02-20T05:40:54.693Z,21.09
2023-02-20T05:41:57.163Z,20.99
2023-02-20T05:42:58.935Z,21.08
2023-02-20T05:44:00.756Z,21.16
2023-02-20T05:45:04.466Z,20.86
2023-02-20T05:46:06.310Z,20.69
2023-02-20T05:47:08.459Z,21.18
2023-02-20T05:48:12.608Z,21.19
2023-02-20T05:49:14.606Z,21.06
2023-02-20T05:50:16.429Z,21.14
2023-02-20T05:51:27.189Z,20.90
2023-02-20T05:52:29.559Z,21.00
2023-02-20T05:53:32.661Z,21.18
2023-02-20T05:54:34.406Z,21.00
2023-02-20T05:55:36.189Z,21.11
2023-02-20T05:56:42.544Z,21.23
2023-02-20T05:57:44.324Z,21.03
2023-02-20T05:58:47.083Z,21.18
2023-02-20T05:59:48.970Z,20.89
2023-02-20T06:00:51.046Z,21.04
2023-02-20T06:01:57.826Z,20.92
2023-02-20T06:02:59.665Z,21.16
2023-02-20T06:04:01.558Z,20.96
2023-02-20T06:05:05.716Z,20.78
2023-02-20T06:06:07.577Z,21.07
2023-02-20T06:07:12.674Z,21.17
2023-02-20T06:08:14.623Z,20.60
2023-02-20T06:09:17.763Z,21.08
2023-02-20T06:10:20.291Z,21.34
2023-02-20T06:11:22.508Z,21.30
2023-02-20T06:12:24.307Z,21.27
2023-02-20T06:13:26.098Z,20.99
2023-02-20T06:14:28.126Z,21.08
2023-02-20T06:15:29.890Z,21.15
2023-02-20T06:16:32.826Z,20.91
2023-02-20T06:17:34.720Z,20.79
2023-02-20T06:18:41.109Z,21.25
2023-02-20T06:19:42.934Z,20.75
2023-02-20T06:20:44.810Z,20.73
2023-02-20T06:21:47.256Z,20.91
2023-02-20T06:22:49.468Z,20.84
2023-02-20T06:23:53.403Z,20.55
2023-02-20T06:24:55.233Z,20.91
2023-02-20T06:25:57.026Z,20.61
2023-02-20T06:26:58.888Z,20.86
2023-02-20T06:28:00.675Z,20.61
2023-02-20T06:29:02.499Z,20.64
2023-02-20T06:30:04.688Z,20.70
2023-02-20T06:31:07.645Z,20.60
2023-02-20T06:32:09.784Z,20.65
2023-02-20T06:33:11.645Z,20.52
2023-02-20T06:34:13.977Z,20.37
2023-02-20T06:35:16.032Z,20.48
2023-02-20T06:36:27.072Z,20.56
2023-02-20T06:37:28.903Z,20.14
2023-02-20T06:38:31.251Z,20.22
2023-02-20T06:39:33.625Z,20.07
2023-02-20T06:40:35.492Z,20.07
2023-02-20T06:41:37.450Z,20.06
2023-02-20T06:42:39.303Z,20.15
2023-02-20T06:43:41.208Z,20.20
2023-02-20T06:44:43.006Z,19.92
2023-02-20T06:45:45.757Z,20.05
2023-02-20T06:46:47.632Z,19.96
2023-02-20T06:47:49.504Z,20.04
2023-02-20T06:48:57.264Z,19.76
2023-02-20T06:49:59.123Z,20.09
2023-02-20T06:51:00.897Z,19.33
2023-02-20T06:52:04.308Z,19.78
2023-02-20T06:53:06.632Z,19.79
2023-02-20T06:54:10.346Z,19.83
2023-02-20T06:55:12.137Z,19.82
2023-02-20T06:56:20.019Z,19.81
2023-02-20T06:57:22.232Z,19.86
2023-02-20T06:58:24.007Z,19.78
2023-02-20T06:59:26.003Z,20.31
2023-02-20T07:00:27.830Z,19.78
2023-02-20T07:01:32.177Z,19.76
2023-02-20T07:02:37.173Z,19.57
2023-02-20T07:03:39.052Z,19.12
2023-02-20T07:04:40.941Z,19.47
2023-02-20T07:05:42.778Z,19.82
2023-02-20T07:06:44.648Z,19.66
2023-02-20T07:07:46.607Z,19.84
2023-02-20T07:08:48.410Z,19.79
2023-02-20T07:09:50.175Z,19.86
2023-02-20T07:10:55.162Z,19.63
2023-02-20T07:11:57.311Z,19.81
2023-02-20T07:12:59.224Z,19.76
2023-02-20T07:14:01.042Z,19.58
2023-02-20T07:15:02.936Z,19.64
2023-02-20T07:16:04.981Z,19.64
2023-02-20T07:17:06.950Z,19.81
2023-02-20T07:18:08.746Z,19.88
2023-02-20T07:19:10.639Z,19.60
2023-02-20T07:20:12.624Z,19.73
2023-02-20T07:21:14.886Z,19.90
2023-02-20T07:22:16.756Z,19.93
2023-02-20T07:23:18.653Z,19.48
2023-02-20T07:24:20.505Z,19.74
2023-02-20T07:25:22.283Z,19.77
2023-02-20T07:26:27.429Z,19.92
2023-02-20T07:27:29.225Z,19.96
2023-02-20T07:28:31.078Z,19.92
2023-02-20T07:29:32.853Z,19.83
2023-02-20T07:30:34.832Z,20.15
2023-02-20T07:31:36.835Z,19.86
2023-02-20T07:32:38.936Z,19.90
2023-02-20T07:33:43.648Z,20.21
2023-02-20T07:34:57.869Z,20.11
2023-02-20T07:36:05.724Z,20.09
2023-02-20T07:37:07.776Z,19.93
2023-02-20T07:38:09.752Z,20.20
2023-02-20T07:39:13.113Z,20.23
2023-02-20T07:40:14.954Z,20.08
2023-02-20T07:41:17.455Z,19.96
2023-02-20T07:42:19.305Z,20.20
2023-02-20T07:43:25.061Z,20.27
2023-02-20T07:44:26.836Z,20.06
2023-02-20T07:45:29.111Z,20.18
2023-02-20T07:46:34.125Z,20.11
2023-02-20T07:47:36.047Z,20.34
2023-02-20T07:48:37.904Z,20.54
2023-02-20T07:49:39.680Z,20.28
2023-02-20T07:50:41.523Z,20.38
2023-02-20T07:51:43.368Z,20.46
2023-02-20T07:52:46.441Z,20.32
2023-02-20T07:53:53.202Z,20.46
2023-02-20T07:54:55.092Z,20.51
2023-02-20T07:55:56.865Z,20.36
2023-02-20T07:56:58.760Z,20.53
2023-02-20T07:58:00.588Z,20.48
2023-02-20T07:59:02.907Z,20.34
2023-02-20T08:00:05.714Z,20.13
2023-02-20T08:01:14.240Z,20.63
2023-02-20T08:02:16.064Z,20.40
2023-02-20T08:03:18.311Z,20.32
2023-02-20T08:04:20.098Z,20.62
2023-02-20T08:05:22.008Z,20.63
2023-02-20T08:06:23.900Z,20.85
2023-02-20T08:07:25.943Z,20.70
2023-02-20T08:08:27.805Z,20.63
2023-02-20T08:09:29.628Z,20.51
2023-02-20T08:10:31.404Z,20.49
2023-02-20T08:11:37.293Z,20.58
2023-02-20T08:12:39.131Z,20.40
2023-02-20T08:13:43.012Z,20.63
2023-02-20T08:14:44.807Z,20.78
2023-02-20T08:15:48.135Z,20.60
2023-02-20T08:16:50.134Z,20.57
2023-02-20T08:17:52.481Z,20.78
2023-02-20T08:18:54.444Z,20.57
2023-02-20T08:19:56.252Z,20.56
2023-02-20T08:20:58.134Z,20.56
2023-02-20T08:21:59.998Z,20.92
2023-02-20T08:23:02.020Z,20.93
2023-02-20T08:24:03.997Z,20.89
2023-02-20T08:25:06.553Z,20.69
2023-02-20T08:26:08.358Z,20.84
2023-02-20T08:27:10.118Z,20.88
2023-02-20T08:28:12.384Z,20.83
2023-02-20T08:29:16.028Z,20.84
2023-02-20T08:30:24.113Z,20.72
2023-02-20T08:31:32.543Z,20.58
2023-02-20T08:32:35.013Z,20.86
2023-02-20T08:33:36.902Z,20.36
2023-02-20T08:34:38.856Z,20.93
2023-02-20T08:35:40.739Z,20.48
2023-02-20T08:36:42.700Z,20.62
2023-02-20T08:37:44.994Z,20.83
2023-02-20T08:38:46.796Z,20.64
2023-02-20T08:39:48.552Z,20.64
2023-02-20T08:40:50.887Z,20.79
2023-02-20T08:41:52.703Z,20.46
2023-02-20T08:42:54.629Z,21.16
2023-02-20T08:43:56.662Z,20.63
2023-02-20T08:44:58.416Z,20.93
2023-02-20T08:46:00.633Z,21.02
2023-02-20T08:47:02.473Z,20.74
2023-02-20T08:48:04.289Z,20.80
2023-02-20T08:49:06.086Z,20.91
2023-02-20T08:50:07.915Z,20.92
2023-02-20T08:51:09.780Z,20.80
2023-02-20T08:52:11.614Z,21.00
2023-02-20T08:53:15.098Z,21.08
2023-02-20T08:54:16.873Z,21.02
2023-02-20T08:55:18.811Z,20.98
2023-02-20T08:56:22.207Z,21.14
2023-02-20T08:57:25.073Z,21.01
2023-02-20T08:58:27.203Z,21.04
2023-02-20T08:59:31.731Z,20.76
2023-02-20T09:00:34.513Z,20.82
2023-02-20T09:01:36.802Z,21.06
2023-02-20T09:02:38.642Z,20.98
2023-02-20T09:03:41.926Z,20.89
2023-02-20T09:04:47.112Z,21.00
2023-02-20T09:05:49.265Z,20.87
2023-02-20T09:06:51.082Z,21.19
2023-02-20T09:07:53.043Z,20.87
2023-02-20T09:08:55.622Z,21.08
2023-02-20T09:09:57.469Z,20.85
2023-02-20T09:10:59.666Z,21.19
2023-02-20T09:12:01.724Z,21.28
2023-02-20T09:13:03.820Z,21.17
2023-02-20T09:14:05.683Z,20.84
2023-02-20T09:15:09.656Z,20.96
2023-02-20T09:16:16.669Z,21.00
2023-02-20T09:17:18.702Z,21.11
2023-02-20T09:18:20.535Z,21.04
2023-02-20T09:19:24.381Z,20.96
2023-02-20T09:20:26.215Z,21.34
2023-02-20T09:21:30.856Z,21.04
2023-02-20T09:22:32.747Z,21.08
2023-02-20T09:23:34.601Z,21.25
2023-02-20T09:24:36.706Z,21.00
2023-02-20T09:25:38.568Z,21.02
2023-02-20T09:26:40.338Z,21.13
2023-02-20T09:27:42.216Z,21.44
2023-02-20T09:28:44.026Z,21.39
2023-02-20T09:29:46.820Z,21.20
2023-02-20T09:30:48.723Z,21.35
2023-02-20T09:31:50.706Z,21.42
2023-02-20T09:32:52.769Z,21.32
2023-02-20T09:33:54.556Z,21.39
2023-02-20T09:34:57.874Z,21.15
2023-02-20T09:35:59.749Z,21.55
2023-02-20T09:37:01.799Z,21.64
2023-02-20T09:38:03.786Z,21.37
2023-02-20T09:39:05.683Z,21.24
2023-02-20T09:40:07.903Z,21.37
2023-02-20T09:41:22.545Z,21.58
2023-02-20T09:42:44.347Z,21.48
2023-02-20T09:44:09.181Z,21.34
2023-02-20T09:45:19.887Z,21.58
2023-02-20T09:46:25.200Z,21.13
2023-02-20T09:47:46.742Z,21.64
2023-02-20T09:49:13.306Z,21.31
2023-02-20T09:50:30.966Z,21.61
2023-02-20T09:51:37.632Z,21.51
2023-02-20T09:52:43.121Z,21.38
2023-02-20T09:54:06.604Z,21.33
2023-02-20T09:55:17.984Z,21.75
2023-02-20T09:56:23.213Z,21.52
2023-02-20T09:57:27.185Z,21.64
2023-02-20T09:58:50.070Z,21.60
2023-02-20T09:59:55.901Z,21.20
2023-02-20T10:01:03.051Z,21.46
2023-02-20T10:02:16.598Z,21.78
2023-02-20T10:03:33.151Z,21.59
2023-02-20T10:04:38.444Z,21.71
2023-02-20T10:05:42.714Z,21.72
2023-02-20T10:06:46.802Z,21.55
2023-02-20T10:07:51.417Z,21.58
2023-02-20T10:08:53.840Z,21.61
2023-02-20T10:09:57.610Z,21.80
2023-02-20T10:11:03.859Z,21.85
2023-02-20T10:12:26.548Z,21.57
2023-02-20T10:13:45.913Z,21.75
2023-02-20T10:14:59.973Z,21.76
2023-02-20T10:16:26.620Z,21.47
2023-02-20T10:17:37.536Z,21.76
2023-02-20T10:18:52.363Z,21.78
2023-02-20T10:20:11.821Z,21.69
2023-02-20T10:21:31.676Z,21.84
2023-02-20T10:22:39.226Z,21.78
2023-02-20T10:24:03.758Z,21.50
2023-02-20T10:25:39.679Z,21.54
2023-02-20T10:26:46.868Z,21.58
2023-02-20T10:27:59.559Z,21.85
2023-02-20T10:29:27.548Z,21.52
2023-02-20T10:30:55.792Z,21.48
2023-02-20T10:32:07.995Z,21.53
2023-02-20T10:33:09.844Z,21.22
2023-02-20T10:34:51.159Z,21.48
2023-02-20T10:36:11.212Z,21.77
2023-02-20T10:37:20.725Z,21.54
2023-02-20T10:38:27.426Z,21.60
2023-02-20T10:39:30.614Z,21.71
2023-02-20T10:40:47.524Z,21.76
2023-02-20T10:42:00.065Z,21.85
2023-02-20T10:43:19.876Z,21.90
2023-02-20T10:44:35.488Z,21.86
2023-02-20T10:46:08.493Z,21.69
2023-02-20T10:47:20.801Z,21.71
2023-02-20T10:48:28.836Z,21.52
2023-02-20T10:50:09.267Z,21.56
2023-02-20T10:51:20.037Z,21.67
2023-02-20T10:52:33.959Z,21.88
2023-02-20T10:54:00.526Z,21.68
2023-02-20T10:55:18.516Z,21.62
2023-02-20T10:56:24.613Z,22.07
2023-02-20T10:57:53.192Z,21.88
2023-02-20T10:59:13.603Z,21.97
2023-02-20T11:00:33.151Z,21.93
2023-02-20T11:01:36.817Z,21.98
2023-02-20T11:02:45.818Z,21.66
2023-02-20T11:04:09.801Z,22.19
2023-02-20T11:05:22.303Z,22.15
2023-02-20T11:06:30.977Z,21.98
2023-02-20T11:07:33.112Z,21.91
2023-02-20T11:08:35.126Z,22.10
2023-02-20T11:09:37.349Z,22.09
2023-02-20T11:10:39.144Z,21.96
2023-02-20T11:11:45.007Z,22.41
2023-02-20T11:12:49.769Z,22.06
2023-02-20T11:13:51.658Z,22.33
2023-02-20T11:14:56.803Z,22.34
2023-02-20T11:15:58.793Z,22.20
2023-02-20T11:17:16.151Z,22.06
2023-02-20T11:18:30.704Z,21.93
2023-02-20T11:19:49.026Z,22.20
2023-02-20T11:20:50.937Z,21.69
2023-02-20T11:21:52.839Z,21.89
2023-02-20T11:22:54.772Z,22.15
2023-02-20T11:23:57.004Z,21.97
2023-02-20T11:25:16.045Z,21.83
2023-02-20T11:26:20.807Z,22.09
2023-02-20T11:27:25.772Z,22.20
2023-02-20T11:28:27.685Z,21.90
2023-02-20T11:29:53.864Z,21.76
2023-02-20T11:31:02.110Z,22.04
2023-02-20T11:32:23.819Z,22.10
2023-02-20T11:33:30.874Z,22.02
2023-02-20T11:34:33.389Z,21.96
2023-02-20T11:35:39.066Z,21.81
2023-02-20T11:36:48.613Z,21.90
2023-02-20T11:38:12.522Z,21.71
2023-02-20T11:39:23.911Z,22.02
2023-02-20T11:40:33.957Z,22.12
2023-02-20T11:41:38.311Z,21.88
2023-02-20T11:42:40.545Z,21.80
2023-02-20T11:43:59.263Z,22.11
2023-02-20T11:45:25.164Z,21.82
2023-02-20T11:46:27.106Z,21.90
2023-02-20T11:47:29.701Z,21.85
2023-02-20T11:48:31.559Z,22.09
2023-02-20T11:49:33.397Z,21.86
2023-02-20T11:50:52.521Z,21.93
2023-02-20T11:52:08.421Z,22.06
2023-02-20T11:53:26.756Z,22.13
2023-02-20T11:54:29.631Z,22.03
2023-02-20T11:55:32.183Z,22.16
2023-02-20T11:56:34.546Z,21.98
2023-02-20T11:57:42.748Z,21.99
2023-02-20T11:58:47.300Z,22.00
2023-02-20T11:59:51.542Z,21.93
2023-02-20T12:00:55.042Z,21.98
2023-02-20T12:02:22.538Z,21.95
2023-02-20T12:03:28.572Z,21.72
2023-02-20T12:04:30.441Z,21.73
2023-02-20T12:05:47.142Z,22.03
2023-02-20T12:06:49.296Z,22.07
2023-02-20T12:07:55.413Z,21.86
2023-02-20T12:09:00.067Z,21.86
2023-02-20T12:10:14.903Z,21.91
2023-02-20T12:11:20.499Z,22.27
2023-02-20T12:12:23.977Z,22.14
2023-02-20T12:13:25.976Z,22.03
2023-02-20T12:14:27.868Z,22.06
2023-02-20T12:15:30.191Z,22.10
2023-02-20T12:17:02.800Z,22.16
2023-02-20T12:18:10.533Z,21.93
2023-02-20T12:19:20.213Z,21.80
2023-02-20T12:20:28.789Z,22.27
2023-02-20T12:21:49.772Z,22.22
2023-02-20T12:23:10.546Z,22.12
2023-02-20T12:24:36.952Z,21.88
2023-02-20T12:26:04.256Z,22.05
2023-02-20T12:27:26.832Z,22.22
2023-02-20T12:28:35.820Z,22.17
2023-02-20T12:29:42.462Z,22.07
2023-02-20T12:30:50.276Z,21.98
2023-02-20T12:32:07.684Z,21.95
2023-02-20T12:33:24.594Z,22.30
2023-02-20T12:34:55.255Z,21.81
2023-02-20T12:36:29.102Z,22.14
2023-02-20T12:37:45.949Z,21.92
2023-02-20T12:38:59.670Z,22.18
2023-02-20T12:40:10.333Z,22.29
2023-02-20T12:41:41.935Z,22.25
2023-02-20T12:43:02.556Z,22.31
2023-02-20T12:44:32.147Z,21.91
2023-02-20T12:45:52.568Z,22.22
2023-02-20T12:47:31.386Z,22.40
2023-02-20T12:48:51.907Z,22.27
2023-02-20T12:50:19.577Z,21.88
2023-02-20T12:51:27.029Z,22.27
2023-02-20T12:52:47.345Z,22.04
2023-02-20T12:54:28.778Z,22.37
2023-02-20T12:55:54.692Z,22.35
2023-02-20T12:57:12.399Z,22.29
2023-02-20T12:58:37.250Z,22.10
2023-02-20T12:59:56.059Z,22.16
2023-02-20T13:01:03.519Z,22.26
2023-02-20T13:02:40.890Z,22.27
2023-02-20T13:04:16.712Z,22.41
2023-02-20T13:05:27.341Z,22.34
2023-02-20T13:06:55.038Z,22.24
2023-02-20T13:08:04.566Z,22.51
2023-02-20T13:09:15.489Z,22.42
2023-02-20T13:10:24.993Z,22.12
2023-02-20T13:11:34.559Z,22.47
2023-02-20T13:12:36.340Z,22.25
2023-02-20T13:14:09.009Z,22.25
2023-02-20T13:15:26.283Z,22.19
2023-02-20T13:16:40.658Z,22.43
2023-02-20T13:17:52.681Z,22.45
2023-02-20T13:19:08.372Z,22.14
2023-02-20T13:20:24.083Z,22.28
2023-02-20T13:21:30.286Z,22.41
2023-02-20T13:22:32.414Z,22.50
2023-02-20T13:23:37.333Z,22.26
2023-02-20T13:24:41.618Z,22.44
2023-02-20T13:25:48.120Z,22.61
2023-02-20T13:26:56.116Z,22.69
2023-02-20T13:28:02.554Z,22.47
2023-02-20T13:29:27.415Z,22.38
2023-02-20T13:30:29.381Z,22.46
2023-02-20T13:31:38.898Z,22.26
2023-02-20T13:32:41.341Z,22.38
2023-02-20T13:33:48.941Z,22.63
2023-02-20T13:34:50.951Z,22.48
2023-02-20T13:35:55.006Z,22.43
2023-02-20T13:36:56.882Z,22.44
2023-02-20T13:38:13.253Z,22.35
2023-02-20T13:39:21.131Z,22.39
2023-02-20T13:40:29.120Z,22.60
2023-02-20T13:41:55.716Z,22.67
2023-02-20T13:43:12.829Z,22.38
2023-02-20T13:44:29.935Z,22.60
2023-02-20T13:46:01.175Z,22.32
2023-02-20T13:47:04.845Z,22.61
2023-02-20T13:48:28.818Z,22.27
2023-02-20T13:49:52.688Z,22.68
2023-02-20T13:51:20.970Z,22.50
2023-02-20T13:52:43.109Z,22.60
2023-02-20T13:53:55.173Z,22.66
2023-02-20T13:54:59.065Z,22.73
2023-02-20T13:56:00.861Z,22.53
2023-02-20T13:57:17.481Z,22.31
2023-02-20T13:58:19.396Z,22.49
2023-02-20T13:59:21.480Z,22.29
2023-02-20T14:00:30.000Z,22.55
2023-02-20T14:02:01.282Z,22.43
2023-02-20T14:03:31.143Z,22.50
2023-02-20T14:04:33.260Z,22.39
2023-02-20T14:05:35.113Z,22.80
2023-02-20T14:06:58.034Z,22.79
2023-02-20T14:08:00.858Z,22.50
2023-02-20T14:09:11.514Z,22.65
2023-02-20T14:10:28.166Z,22.68
2023-02-20T14:11:35.515Z,22.35
2023-02-20T14:12:37.567Z,22.78
2023-02-20T14:13:42.860Z,22.71
2023-02-20T14:14:46.189Z,22.67
2023-02-20T14:15:59.122Z,22.81
2023-02-20T14:17:23.659Z,22.61
2023-02-20T14:18:27.124Z,22.77
2023-02-20T14:19:30.120Z,22.60
2023-02-20T14:20:37.097Z,22.71
2023-02-20T14:21:38.984Z,22.52
2023-02-20T14:22:40.796Z,22.84
2023-02-20T14:23:42.701Z,22.90
2023-02-20T14:24:44.518Z,23.04
2023-02-20T14:26:01.333Z,23.02
2023-02-20T14:27:23.140Z,22.70
2023-02-20T14:28:26.155Z,22.51
2023-02-20T14:29:35.093Z,22.94